sensor_id;sensor_type;location;lat;lon;timestamp;pressure;altitude;pressure_sealevel;temperature;humidity
79527;BME280;68974;47.754;-3.364;2024-01-15T00:01:09;101077.22;;;3.77;91.49
79527;BME280;68974;47.754;-3.364;2024-01-15T00:03:34;101085.22;;;3.72;91.45
79527;BME280;68974;47.754;-3.364;2024-01-15T00:05:59;101087.00;;;3.66;91.29
79527;BME280;68974;47.754;-3.364;2024-01-15T00:08:25;101083.41;;;3.84;91.35
79527;BME280;68974;47.754;-3.364;2024-01-15T00:10:51;101074.84;;;3.69;91.47
79527;BME280;68974;47.754;-3.364;2024-01-15T00:13:16;101077.22;;;3.77;91.67
79527;BME280;68974;47.754;-3.364;2024-01-15T00:15:42;101071.22;;;3.75;91.80
79527;BME280;68974;47.754;-3.364;2024-01-15T00:18:07;101078.31;;;3.76;92.06
79527;BME280;68974;47.754;-3.364;2024-01-15T00:20:32;101067.16;;;3.66;91.47
79527;BME280;68974;47.754;-3.364;2024-01-15T00:22:58;101064.25;;;3.79;91.98
79527;BME280;68974;47.754;-3.364;2024-01-15T00:25:23;101069.06;;;3.77;92.35
79527;BME280;68974;47.754;-3.364;2024-01-15T00:27:49;101060.91;;;3.77;92.84
79527;BME280;68974;47.754;-3.364;2024-01-15T00:30:14;101063.88;;;3.75;92.58
79527;BME280;68974;47.754;-3.364;2024-01-15T00:32:40;101061.31;;;3.80;91.71
79527;BME280;68974;47.754;-3.364;2024-01-15T00:35:05;101065.16;;;3.73;91.91
79527;BME280;68974;47.754;-3.364;2024-01-15T00:37:31;101055.50;;;3.77;92.42
79527;BME280;68974;47.754;-3.364;2024-01-15T00:39:57;101050.53;;;3.74;91.84
79527;BME280;68974;47.754;-3.364;2024-01-15T00:42:22;101040.66;;;3.61;91.79
79527;BME280;68974;47.754;-3.364;2024-01-15T00:44:48;101039.44;;;3.57;93.01
79527;BME280;68974;47.754;-3.364;2024-01-15T00:47:13;101047.50;;;3.64;92.17
79527;BME280;68974;47.754;-3.364;2024-01-15T00:49:39;101037.69;;;3.63;92.17
79527;BME280;68974;47.754;-3.364;2024-01-15T00:52:05;101034.75;;;3.64;92.35
79527;BME280;68974;47.754;-3.364;2024-01-15T00:54:30;101028.78;;;3.74;92.02
79527;BME280;68974;47.754;-3.364;2024-01-15T00:56:56;101028.31;;;3.77;91.51
79527;BME280;68974;47.754;-3.364;2024-01-15T00:59:21;101030.31;;;3.70;91.70
79527;BME280;68974;47.754;-3.364;2024-01-15T01:01:47;101030.53;;;3.68;91.69
79527;BME280;68974;47.754;-3.364;2024-01-15T01:04:12;101028.66;;;3.69;91.23
79527;BME280;68974;47.754;-3.364;2024-01-15T01:06:38;101019.13;;;3.78;91.78
79527;BME280;68974;47.754;-3.364;2024-01-15T01:09:03;101024.25;;;3.68;91.78
79527;BME280;68974;47.754;-3.364;2024-01-15T01:11:30;101024.94;;;3.63;91.78
79527;BME280;68974;47.754;-3.364;2024-01-15T01:13:55;101016.59;;;3.65;92.26
79527;BME280;68974;47.754;-3.364;2024-01-15T01:16:22;101015.53;;;3.66;92.49
79527;BME280;68974;47.754;-3.364;2024-01-15T01:18:47;101012.13;;;3.70;92.29
79527;BME280;68974;47.754;-3.364;2024-01-15T01:21:13;101018.94;;;3.61;92.70
79527;BME280;68974;47.754;-3.364;2024-01-15T01:23:38;101012.66;;;3.61;91.89
79527;BME280;68974;47.754;-3.364;2024-01-15T01:26:04;101015.59;;;3.59;92.50
79527;BME280;68974;47.754;-3.364;2024-01-15T01:28:29;101019.16;;;3.60;92.60
79527;BME280;68974;47.754;-3.364;2024-01-15T01:30:54;101015.81;;;3.76;93.10
79527;BME280;68974;47.754;-3.364;2024-01-15T01:33:20;101011.66;;;3.73;92.21
79527;BME280;68974;47.754;-3.364;2024-01-15T01:35:45;101015.13;;;3.80;91.85
79527;BME280;68974;47.754;-3.364;2024-01-15T01:38:12;101012.50;;;3.74;92.72
79527;BME280;68974;47.754;-3.364;2024-01-15T01:40:37;101007.38;;;3.66;92.67
79527;BME280;68974;47.754;-3.364;2024-01-15T01:43:04;101011.66;;;3.73;93.08
79527;BME280;68974;47.754;-3.364;2024-01-15T01:45:30;101007.75;;;3.69;92.98
79527;BME280;68974;47.754;-3.364;2024-01-15T01:47:55;101003.72;;;3.72;93.55
79527;BME280;68974;47.754;-3.364;2024-01-15T01:50:21;101002.94;;;3.83;92.94
79527;BME280;68974;47.754;-3.364;2024-01-15T01:52:47;100995.50;;;3.78;91.78
79527;BME280;68974;47.754;-3.364;2024-01-15T01:55:14;101001.75;;;3.79;91.68
79527;BME280;68974;47.754;-3.364;2024-01-15T01:57:40;101004.00;;;3.82;92.49
79527;BME280;68974;47.754;-3.364;2024-01-15T02:00:06;101004.84;;;3.82;91.90
79527;BME280;68974;47.754;-3.364;2024-01-15T02:02:32;100984.84;;;3.77;92.09
79527;BME280;68974;47.754;-3.364;2024-01-15T02:04:58;100990.41;;;3.82;91.64
79527;BME280;68974;47.754;-3.364;2024-01-15T02:07:24;100989.84;;;3.80;92.35
79527;BME280;68974;47.754;-3.364;2024-01-15T02:09:50;100994.06;;;3.76;91.71
79527;BME280;68974;47.754;-3.364;2024-01-15T02:12:15;100990.06;;;3.78;91.86
79527;BME280;68974;47.754;-3.364;2024-01-15T02:14:41;100984.84;;;3.77;91.82
79527;BME280;68974;47.754;-3.364;2024-01-15T02:17:06;100998.97;;;3.67;91.95
79527;BME280;68974;47.754;-3.364;2024-01-15T02:19:32;101001.63;;;3.74;92.29
79527;BME280;68974;47.754;-3.364;2024-01-15T02:21:57;101002.53;;;3.68;92.72
79527;BME280;68974;47.754;-3.364;2024-01-15T02:24:23;101013.41;;;3.68;92.73
79527;BME280;68974;47.754;-3.364;2024-01-15T02:26:49;101010.81;;;3.73;93.01
79527;BME280;68974;47.754;-3.364;2024-01-15T02:29:14;101012.50;;;3.74;92.40
79527;BME280;68974;47.754;-3.364;2024-01-15T02:31:40;101002.44;;;3.74;92.22
79527;BME280;68974;47.754;-3.364;2024-01-15T02:34:06;100999.53;;;3.87;92.43
79527;BME280;68974;47.754;-3.364;2024-01-15T02:36:31;100997.38;;;3.78;91.77
79527;BME280;68974;47.754;-3.364;2024-01-15T02:38:57;100997.50;;;3.83;91.65
79527;BME280;68974;47.754;-3.364;2024-01-15T02:41:22;100998.56;;;3.82;91.48
79527;BME280;68974;47.754;-3.364;2024-01-15T02:43:48;100990.75;;;3.74;91.81
79527;BME280;68974;47.754;-3.364;2024-01-15T02:46:13;100986.97;;;3.75;92.19
79527;BME280;68974;47.754;-3.364;2024-01-15T02:48:39;100977.31;;;3.79;91.65
79527;BME280;68974;47.754;-3.364;2024-01-15T02:51:04;100973.16;;;3.76;91.45
79527;BME280;68974;47.754;-3.364;2024-01-15T02:53:30;100966.91;;;3.76;91.76
79527;BME280;68974;47.754;-3.364;2024-01-15T02:55:55;100979.09;;;3.85;91.61
79527;BME280;68974;47.754;-3.364;2024-01-15T02:58:21;100969.75;;;3.81;91.31
79527;BME280;68974;47.754;-3.364;2024-01-15T03:00:47;100967.34;;;3.73;91.74
79527;BME280;68974;47.754;-3.364;2024-01-15T03:03:12;100969.50;;;3.71;92.37
79527;BME280;68974;47.754;-3.364;2024-01-15T03:05:38;100961.34;;;3.82;92.17
79527;BME280;68974;47.754;-3.364;2024-01-15T03:08:04;100967.34;;;3.73;92.39
79527;BME280;68974;47.754;-3.364;2024-01-15T03:10:29;100964.56;;;3.79;91.90
79527;BME280;68974;47.754;-3.364;2024-01-15T03:12:55;100968.53;;;3.77;91.46
79527;BME280;68974;47.754;-3.364;2024-01-15T03:15:20;100965.69;;;3.72;91.74
79527;BME280;68974;47.754;-3.364;2024-01-15T03:17:46;100968.53;;;3.77;92.45
79527;BME280;68974;47.754;-3.364;2024-01-15T03:20:11;100960.38;;;3.77;92.08
79527;BME280;68974;47.754;-3.364;2024-01-15T03:22:37;100963.09;;;3.77;92.01
79527;BME280;68974;47.754;-3.364;2024-01-15T03:25:04;100967.50;;;3.78;91.59
79527;BME280;68974;47.754;-3.364;2024-01-15T03:27:29;100972.00;;;3.84;92.31
79527;BME280;68974;47.754;-3.364;2024-01-15T03:29:55;100970.22;;;3.78;92.36
79527;BME280;68974;47.754;-3.364;2024-01-15T03:32:20;100964.41;;;3.74;92.44
79527;BME280;68974;47.754;-3.364;2024-01-15T03:34:46;100963.66;;;3.67;92.10
79527;BME280;68974;47.754;-3.364;2024-01-15T03:37:13;100960.25;;;3.72;92.57
79527;BME280;68974;47.754;-3.364;2024-01-15T03:39:38;100951.94;;;3.97;92.36
79527;BME280;68974;47.754;-3.364;2024-01-15T03:42:04;100958.56;;;3.89;91.17
79527;BME280;68974;47.754;-3.364;2024-01-15T03:44:29;100948.59;;;3.83;91.23
79527;BME280;68974;47.754;-3.364;2024-01-15T03:46:55;100946.94;;;3.82;91.73
79527;BME280;68974;47.754;-3.364;2024-01-15T03:49:20;100945.53;;;3.79;92.09
79527;BME280;68974;47.754;-3.364;2024-01-15T03:51:46;100947.06;;;3.87;91.60
79527;BME280;68974;47.754;-3.364;2024-01-15T03:54:11;100943.91;;;3.90;91.44
79527;BME280;68974;47.754;-3.364;2024-01-15T03:56:37;100943.44;;;3.93;91.43
79527;BME280;68974;47.754;-3.364;2024-01-15T03:59:02;100942.25;;;3.89;91.68
79527;BME280;68974;47.754;-3.364;2024-01-15T04:01:28;100937.16;;;3.92;90.77
79527;BME280;68974;47.754;-3.364;2024-01-15T04:03:54;100934.09;;;3.89;90.97
79527;BME280;68974;47.754;-3.364;2024-01-15T04:06:20;100931.03;;;3.97;91.36
79527;BME280;68974;47.754;-3.364;2024-01-15T04:08:45;100944.34;;;3.87;90.75
79527;BME280;68974;47.754;-3.364;2024-01-15T04:11:11;100937.59;;;3.78;91.39
79527;BME280;68974;47.754;-3.364;2024-01-15T04:13:36;100940.00;;;3.86;91.30
79527;BME280;68974;47.754;-3.364;2024-01-15T04:16:02;100940.53;;;3.76;92.17
79527;BME280;68974;47.754;-3.364;2024-01-15T04:18:28;100935.75;;;3.90;91.96
79527;BME280;68974;47.754;-3.364;2024-01-15T04:20:54;100941.28;;;3.83;91.08
79527;BME280;68974;47.754;-3.364;2024-01-15T04:23:19;100956.84;;;3.76;92.00
79527;BME280;68974;47.754;-3.364;2024-01-15T04:25:45;100962.28;;;3.76;92.50
79527;BME280;68974;47.754;-3.364;2024-01-15T04:28:11;100966.66;;;3.77;92.40
79527;BME280;68974;47.754;-3.364;2024-01-15T04:30:37;100966.44;;;3.79;92.76
79527;BME280;68974;47.754;-3.364;2024-01-15T04:33:02;100963.72;;;3.79;93.13
79527;BME280;68974;47.754;-3.364;2024-01-15T04:35:28;100953.91;;;3.78;93.16
79527;BME280;68974;47.754;-3.364;2024-01-15T04:37:53;100957.03;;;3.93;92.18
79527;BME280;68974;47.754;-3.364;2024-01-15T04:40:19;100953.34;;;3.87;91.48
79527;BME280;68974;47.754;-3.364;2024-01-15T04:42:44;100951.59;;;3.93;91.42
79527;BME280;68974;47.754;-3.364;2024-01-15T04:45:12;100949.94;;;3.92;92.00
79527;BME280;68974;47.754;-3.364;2024-01-15T04:47:38;100946.63;;;3.90;91.73
79527;BME280;68974;47.754;-3.364;2024-01-15T04:50:04;100936.94;;;3.94;92.07
79527;BME280;68974;47.754;-3.364;2024-01-15T04:52:30;100934.44;;;3.92;90.84
79527;BME280;68974;47.754;-3.364;2024-01-15T04:54:57;100939.66;;;3.94;91.54
79527;BME280;68974;47.754;-3.364;2024-01-15T04:57:22;100943.53;;;3.86;92.12
79527;BME280;68974;47.754;-3.364;2024-01-15T04:59:48;100940.59;;;3.88;91.85
79527;BME280;68974;47.754;-3.364;2024-01-15T05:02:13;100941.19;;;3.90;92.43
79527;BME280;68974;47.754;-3.364;2024-01-15T05:04:39;100936.22;;;3.87;91.94
79527;BME280;68974;47.754;-3.364;2024-01-15T05:07:05;100931.72;;;3.81;92.10
79527;BME280;68974;47.754;-3.364;2024-01-15T05:09:30;100929.38;;;3.96;92.07
79527;BME280;68974;47.754;-3.364;2024-01-15T05:11:56;100929.50;;;3.89;92.45
79527;BME280;68974;47.754;-3.364;2024-01-15T05:14:21;100919.91;;;3.87;92.35
79527;BME280;68974;47.754;-3.364;2024-01-15T05:16:47;100923.09;;;3.84;92.74
79527;BME280;68974;47.754;-3.364;2024-01-15T05:19:13;100927.00;;;3.88;92.72
79527;BME280;68974;47.754;-3.364;2024-01-15T05:21:38;100923.09;;;3.84;92.33
79527;BME280;68974;47.754;-3.364;2024-01-15T05:24:04;100911.53;;;3.88;92.57
79527;BME280;68974;47.754;-3.364;2024-01-15T05:26:29;100904.06;;;3.84;92.87
79527;BME280;68974;47.754;-3.364;2024-01-15T05:28:55;100904.78;;;3.79;92.04
79527;BME280;68974;47.754;-3.364;2024-01-15T05:31:20;100899.00;;;3.87;92.51
79527;BME280;68974;47.754;-3.364;2024-01-15T05:33:48;100897.59;;;3.85;92.70
79527;BME280;68974;47.754;-3.364;2024-01-15T05:36:13;100897.22;;;3.93;92.48
79527;BME280;68974;47.754;-3.364;2024-01-15T05:38:39;100892.28;;;3.90;92.01
79527;BME280;68974;47.754;-3.364;2024-01-15T05:41:05;100882.25;;;3.90;92.24
79527;BME280;68974;47.754;-3.364;2024-01-15T05:43:30;100875.84;;;3.85;92.35
79527;BME280;68974;47.754;-3.364;2024-01-15T05:45:56;100875.84;;;3.85;91.87
79527;BME280;68974;47.754;-3.364;2024-01-15T05:48:21;100889.66;;;3.83;93.09
79527;BME280;68974;47.754;-3.364;2024-01-15T05:50:47;100896.06;;;3.89;92.38
79527;BME280;68974;47.754;-3.364;2024-01-15T05:53:12;100906.19;;;3.82;91.64
79527;BME280;68974;47.754;-3.364;2024-01-15T05:55:38;100900.53;;;3.83;91.78
79527;BME280;68974;47.754;-3.364;2024-01-15T05:58:04;100895.91;;;3.84;92.55
79527;BME280;68974;47.754;-3.364;2024-01-15T06:00:29;100892.47;;;3.77;92.42
79527;BME280;68974;47.754;-3.364;2024-01-15T06:02:55;100898.63;;;3.84;92.08
79527;BME280;68974;47.754;-3.364;2024-01-15T06:05:20;100893.44;;;3.82;92.63
79527;BME280;68974;47.754;-3.364;2024-01-15T06:07:45;100899.25;;;3.86;92.06
79527;BME280;68974;47.754;-3.364;2024-01-15T06:10:11;100892.16;;;3.85;92.30
79527;BME280;68974;47.754;-3.364;2024-01-15T06:12:36;100912.22;;;3.84;92.67
79527;BME280;68974;47.754;-3.364;2024-01-15T06:15:02;100905.34;;;3.81;92.79
79527;BME280;68974;47.754;-3.364;2024-01-15T06:17:27;100920.84;;;3.81;92.76
79527;BME280;68974;47.754;-3.364;2024-01-15T06:19:53;100926.28;;;3.81;93.10
79527;BME280;68974;47.754;-3.364;2024-01-15T06:22:18;100919.19;;;3.80;93.10
79527;BME280;68974;47.754;-3.364;2024-01-15T06:24:44;100924.75;;;3.85;93.82
79527;BME280;68974;47.754;-3.364;2024-01-15T06:27:09;100928.75;;;3.82;93.05
79527;BME280;68974;47.754;-3.364;2024-01-15T06:29:37;100910.69;;;3.88;92.51
79527;BME280;68974;47.754;-3.364;2024-01-15T06:32:04;100916.47;;;3.91;92.79
79527;BME280;68974;47.754;-3.364;2024-01-15T06:34:29;100909.63;;;3.89;93.02
79527;BME280;68974;47.754;-3.364;2024-01-15T06:36:55;100905.75;;;3.85;93.37
79527;BME280;68974;47.754;-3.364;2024-01-15T06:39:20;100905.16;;;4.06;91.40
79527;BME280;68974;47.754;-3.364;2024-01-15T06:41:45;100905.66;;;4.03;91.56
79527;BME280;68974;47.754;-3.364;2024-01-15T06:44:11;100907.53;;;4.03;91.75
79527;BME280;68974;47.754;-3.364;2024-01-15T06:46:42;100909.28;;;3.97;91.76
79527;BME280;68974;47.754;-3.364;2024-01-15T06:49:07;100904.69;;;3.98;91.54
79527;BME280;68974;47.754;-3.364;2024-01-15T06:51:32;100916.25;;;3.93;91.79
79527;BME280;68974;47.754;-3.364;2024-01-15T06:53:58;100919.06;;;3.86;92.05
79527;BME280;68974;47.754;-3.364;2024-01-15T06:56:23;100926.41;;;3.86;92.96
79527;BME280;68974;47.754;-3.364;2024-01-15T06:58:49;100936.69;;;3.84;92.52
79527;BME280;68974;47.754;-3.364;2024-01-15T07:01:14;100928.19;;;3.92;92.75
79527;BME280;68974;47.754;-3.364;2024-01-15T07:03:40;100930.31;;;3.90;92.27
79527;BME280;68974;47.754;-3.364;2024-01-15T07:06:05;100935.75;;;3.90;92.44
79527;BME280;68974;47.754;-3.364;2024-01-15T07:08:31;100938.22;;;3.91;92.85
79527;BME280;68974;47.754;-3.364;2024-01-15T07:10:56;100941.31;;;3.95;93.52
79527;BME280;68974;47.754;-3.364;2024-01-15T07:13:22;100943.44;;;3.93;93.06
79527;BME280;68974;47.754;-3.364;2024-01-15T07:15:47;100943.66;;;3.91;92.98
79527;BME280;68974;47.754;-3.364;2024-01-15T07:18:13;100935.75;;;3.90;92.95
79527;BME280;68974;47.754;-3.364;2024-01-15T07:20:38;100934.81;;;3.96;92.09
79527;BME280;68974;47.754;-3.364;2024-01-15T07:23:03;100933.19;;;3.95;92.85
79527;BME280;68974;47.754;-3.364;2024-01-15T07:25:29;100938.59;;;3.95;92.51
79527;BME280;68974;47.754;-3.364;2024-01-15T07:27:54;100951.13;;;3.96;93.14
79527;BME280;68974;47.754;-3.364;2024-01-15T07:30:20;100945.22;;;3.99;93.00
79527;BME280;68974;47.754;-3.364;2024-01-15T07:32:47;100950.19;;;4.02;92.42
79527;BME280;68974;47.754;-3.364;2024-01-15T07:35:14;100943.91;;;4.02;92.79
79527;BME280;68974;47.754;-3.364;2024-01-15T07:37:39;100948.66;;;4.06;92.39
79527;BME280;68974;47.754;-3.364;2024-01-15T07:40:05;100948.53;;;4.01;92.89
79527;BME280;68974;47.754;-3.364;2024-01-15T07:42:34;100945.94;;;4.06;92.66
79527;BME280;68974;47.754;-3.364;2024-01-15T07:44:59;100944.31;;;4.05;92.51
79527;BME280;68974;47.754;-3.364;2024-01-15T07:47:25;100945.38;;;4.04;91.85
79527;BME280;68974;47.754;-3.364;2024-01-15T07:49:50;100953.53;;;4.04;92.42
79527;BME280;68974;47.754;-3.364;2024-01-15T07:52:16;100950.53;;;4.06;92.63
79527;BME280;68974;47.754;-3.364;2024-01-15T07:54:41;100953.53;;;4.04;92.33
79527;BME280;68974;47.754;-3.364;2024-01-15T07:57:07;100959.78;;;4.05;92.67
79527;BME280;68974;47.754;-3.364;2024-01-15T07:59:32;100963.91;;;4.07;92.75
79527;BME280;68974;47.754;-3.364;2024-01-15T08:01:59;100956.81;;;4.06;92.75
79527;BME280;68974;47.754;-3.364;2024-01-15T08:04:24;100962.25;;;4.06;92.02
79527;BME280;68974;47.754;-3.364;2024-01-15T08:06:50;100960.63;;;4.05;92.64
79527;BME280;68974;47.754;-3.364;2024-01-15T08:09:15;100964.97;;;4.06;92.16
79527;BME280;68974;47.754;-3.364;2024-01-15T08:11:42;100971.25;;;4.07;92.39
79527;BME280;68974;47.754;-3.364;2024-01-15T08:14:08;100977.50;;;4.07;92.92
79527;BME280;68974;47.754;-3.364;2024-01-15T08:16:34;100974.78;;;4.07;92.69
79527;BME280;68974;47.754;-3.364;2024-01-15T08:19:00;100963.47;;;4.10;93.00
79527;BME280;68974;47.754;-3.364;2024-01-15T08:21:25;100960.75;;;4.10;92.10
79527;BME280;68974;47.754;-3.364;2024-01-15T08:23:56;100966.75;;;4.12;92.67
79527;BME280;68974;47.754;-3.364;2024-01-15T08:26:21;100965.09;;;4.11;92.08
79527;BME280;68974;47.754;-3.364;2024-01-15T08:28:47;100970.53;;;4.11;92.54
79527;BME280;68974;47.754;-3.364;2024-01-15T08:31:13;100965.94;;;4.12;92.39
79527;BME280;68974;47.754;-3.364;2024-01-15T08:33:39;100980.34;;;4.12;92.42
79527;BME280;68974;47.754;-3.364;2024-01-15T08:36:04;100976.09;;;4.16;92.21
79527;BME280;68974;47.754;-3.364;2024-01-15T08:38:30;100987.81;;;4.17;92.42
79527;BME280;68974;47.754;-3.364;2024-01-15T08:40:55;100980.00;;;4.20;92.31
79527;BME280;68974;47.754;-3.364;2024-01-15T08:43:24;100986.66;;;4.24;91.80
79527;BME280;68974;47.754;-3.364;2024-01-15T08:45:50;100994.13;;;4.29;92.22
79527;BME280;68974;47.754;-3.364;2024-01-15T08:48:16;100997.41;;;4.31;92.60
79527;BME280;68974;47.754;-3.364;2024-01-15T08:50:41;101002.41;;;4.34;92.04
79527;BME280;68974;47.754;-3.364;2024-01-15T08:53:07;101006.09;;;4.40;92.32
79527;BME280;68974;47.754;-3.364;2024-01-15T08:55:32;101002.75;;;4.38;92.03
79527;BME280;68974;47.754;-3.364;2024-01-15T08:57:58;101007.72;;;4.41;92.12
79527;BME280;68974;47.754;-3.364;2024-01-15T09:00:23;101016.00;;;4.46;92.31
79527;BME280;68974;47.754;-3.364;2024-01-15T09:02:49;101018.84;;;4.51;92.09
79527;BME280;68974;47.754;-3.364;2024-01-15T09:05:14;101014.25;;;4.51;92.00
79527;BME280;68974;47.754;-3.364;2024-01-15T09:07:40;101015.06;;;4.52;91.65
79527;BME280;68974;47.754;-3.364;2024-01-15T09:10:06;101025.47;;;4.55;92.06
79527;BME280;68974;47.754;-3.364;2024-01-15T09:12:32;101017.91;;;4.57;91.77
79527;BME280;68974;47.754;-3.364;2024-01-15T09:14:57;101018.53;;;4.59;91.10
79527;BME280;68974;47.754;-3.364;2024-01-15T09:17:22;101018.66;;;4.64;91.73
79527;BME280;68974;47.754;-3.364;2024-01-15T09:19:49;101023.50;;;4.73;91.13
79527;BME280;68974;47.754;-3.364;2024-01-15T09:22:15;101024.34;;;4.74;90.98
79527;BME280;68974;47.754;-3.364;2024-01-15T09:24:46;101029.78;;;4.74;91.32
79527;BME280;68974;47.754;-3.364;2024-01-15T09:27:12;101031.41;;;4.75;91.07
79527;BME280;68974;47.754;-3.364;2024-01-15T09:29:38;101032.59;;;4.79;91.30
79527;BME280;68974;47.754;-3.364;2024-01-15T09:32:06;101030.00;;;4.84;90.49
79527;BME280;68974;47.754;-3.364;2024-01-15T09:34:33;101034.50;;;4.90;90.79
79527;BME280;68974;47.754;-3.364;2024-01-15T09:36:58;101028.47;;;5.00;90.66
79527;BME280;68974;47.754;-3.364;2024-01-15T09:39:25;101035.09;;;5.04;90.21
79527;BME280;68974;47.754;-3.364;2024-01-15T09:41:51;101026.31;;;5.13;90.29
79527;BME280;68974;47.754;-3.364;2024-01-15T09:44:17;101033.09;;;5.22;90.21
79527;BME280;68974;47.754;-3.364;2024-01-15T09:46:45;101039.56;;;5.33;90.30
79527;BME280;68974;47.754;-3.364;2024-01-15T09:49:11;101037.78;;;5.39;89.18
79527;BME280;68974;47.754;-3.364;2024-01-15T09:51:37;101036.31;;;5.48;88.93
79527;BME280;68974;47.754;-3.364;2024-01-15T09:54:04;101035.72;;;5.57;88.42
79527;BME280;68974;47.754;-3.364;2024-01-15T09:56:30;101036.19;;;5.66;87.68
79527;BME280;68974;47.754;-3.364;2024-01-15T09:58:56;101031.16;;;5.86;86.77
79527;BME280;68974;47.754;-3.364;2024-01-15T10:01:22;101036.22;;;5.94;86.05
79527;BME280;68974;47.754;-3.364;2024-01-15T10:03:48;101031.44;;;6.01;85.66
79527;BME280;68974;47.754;-3.364;2024-01-15T10:06:16;101030.34;;;6.14;85.41
79527;BME280;68974;47.754;-3.364;2024-01-15T10:08:48;101034.53;;;6.22;84.88
79527;BME280;68974;47.754;-3.364;2024-01-15T10:11:14;101039.13;;;6.33;84.63
79527;BME280;68974;47.754;-3.364;2024-01-15T10:13:40;101033.53;;;6.39;83.72
79527;BME280;68974;47.754;-3.364;2024-01-15T10:16:06;101044.44;;;6.39;83.21
79527;BME280;68974;47.754;-3.364;2024-01-15T10:18:32;101035.47;;;6.27;82.90
79527;BME280;68974;47.754;-3.364;2024-01-15T10:20:58;101043.56;;;6.22;82.29
79527;BME280;68974;47.754;-3.364;2024-01-15T10:23:24;101051.66;;;6.17;82.73
79527;BME280;68974;47.754;-3.364;2024-01-15T10:25:49;101052.63;;;6.11;82.57
79527;BME280;68974;47.754;-3.364;2024-01-15T10:28:19;101057.94;;;6.18;83.18
79527;BME280;68974;47.754;-3.364;2024-01-15T10:30:44;101067.53;;;6.20;82.43
79527;BME280;68974;47.754;-3.364;2024-01-15T10:33:10;101056.09;;;6.35;83.51
79527;BME280;68974;47.754;-3.364;2024-01-15T10:35:37;101058.31;;;6.38;82.45
79527;BME280;68974;47.754;-3.364;2024-01-15T10:38:03;101060.44;;;6.36;82.85
79527;BME280;68974;47.754;-3.364;2024-01-15T10:40:30;101064.00;;;6.36;82.79
79527;BME280;68974;47.754;-3.364;2024-01-15T10:42:56;101056.19;;;6.40;82.69
79527;BME280;68974;47.754;-3.364;2024-01-15T10:45:22;101062.63;;;6.34;81.07
79527;BME280;68974;47.754;-3.364;2024-01-15T10:47:47;101062.78;;;6.44;81.41
79527;BME280;68974;47.754;-3.364;2024-01-15T10:50:14;101061.22;;;6.48;80.75
79527;BME280;68974;47.754;-3.364;2024-01-15T10:52:40;101058.66;;;6.58;80.78
79527;BME280;68974;47.754;-3.364;2024-01-15T10:55:09;101057.19;;;6.67;78.14
79527;BME280;68974;47.754;-3.364;2024-01-15T10:57:38;101060.13;;;6.99;76.03
79527;BME280;68974;47.754;-3.364;2024-01-15T11:00:07;101053.16;;;7.25;74.86
79527;BME280;68974;47.754;-3.364;2024-01-15T11:02:36;101044.78;;;7.53;72.96
79527;BME280;68974;47.754;-3.364;2024-01-15T11:05:02;101045.06;;;8.22;69.51
79527;BME280;68974;47.754;-3.364;2024-01-15T11:07:30;101044.97;;;9.49;66.51
79527;BME280;68974;47.754;-3.364;2024-01-15T11:09:55;101042.56;;;10.25;61.05
79527;BME280;68974;47.754;-3.364;2024-01-15T11:12:21;101046.50;;;11.85;59.38
79527;BME280;68974;47.754;-3.364;2024-01-15T11:14:47;101045.91;;;12.42;55.97
79527;BME280;68974;47.754;-3.364;2024-01-15T11:17:13;101052.28;;;12.71;51.84
79527;BME280;68974;47.754;-3.364;2024-01-15T11:24:53;101032.53;;;15.19;44.91
79527;BME280;68974;47.754;-3.364;2024-01-15T11:27:44;101039.94;;;16.19;42.05
79527;BME280;68974;47.754;-3.364;2024-01-15T11:30:12;101050.13;;;16.60;40.23
79527;BME280;68974;47.754;-3.364;2024-01-15T11:32:38;101045.06;;;16.26;39.96
79527;BME280;68974;47.754;-3.364;2024-01-15T11:35:08;101051.16;;;16.50;38.99
79527;BME280;68974;47.754;-3.364;2024-01-15T11:40:21;101053.63;;;16.96;36.63
79527;BME280;68974;47.754;-3.364;2024-01-15T11:42:47;101056.19;;;16.12;37.18
79527;BME280;68974;47.754;-3.364;2024-01-15T11:45:14;101049.03;;;16.33;37.26
79527;BME280;68974;47.754;-3.364;2024-01-15T11:50:43;101059.00;;;16.57;36.59
79527;BME280;68974;47.754;-3.364;2024-01-15T11:53:36;101060.28;;;16.01;38.21
79527;BME280;68974;47.754;-3.364;2024-01-15T11:56:13;101062.72;;;15.48;39.18
79527;BME280;68974;47.754;-3.364;2024-01-15T11:58:39;101070.44;;;15.05;39.69
79527;BME280;68974;47.754;-3.364;2024-01-15T12:01:05;101073.59;;;12.66;43.63
79527;BME280;68974;47.754;-3.364;2024-01-15T12:03:32;101062.53;;;11.57;46.34
79527;BME280;68974;47.754;-3.364;2024-01-15T12:05:59;101068.13;;;10.76;49.42
79527;BME280;68974;47.754;-3.364;2024-01-15T12:08:25;101074.38;;;10.31;51.36
79527;BME280;68974;47.754;-3.364;2024-01-15T12:10:52;101071.38;;;9.61;52.23
79527;BME280;68974;47.754;-3.364;2024-01-15T12:13:18;101076.75;;;9.40;52.87
79527;BME280;68974;47.754;-3.364;2024-01-15T12:15:46;101076.38;;;8.90;53.78
79527;BME280;68974;47.754;-3.364;2024-01-15T12:18:14;101071.25;;;8.66;56.37
79527;BME280;68974;47.754;-3.364;2024-01-15T12:20:40;101071.81;;;9.00;55.73
79527;BME280;68974;47.754;-3.364;2024-01-15T12:23:06;101064.03;;;8.87;56.05
79527;BME280;68974;47.754;-3.364;2024-01-15T12:25:33;101055.31;;;9.89;54.16
79527;BME280;68974;47.754;-3.364;2024-01-15T12:28:00;101043.22;;;12.27;47.32
79527;BME280;68974;47.754;-3.364;2024-01-15T12:30:30;101031.56;;;14.26;42.33
79527;BME280;68974;47.754;-3.364;2024-01-15T12:33:03;101023.91;;;15.53;39.46
79527;BME280;68974;47.754;-3.364;2024-01-15T12:35:31;101023.72;;;15.17;38.59
79527;BME280;68974;47.754;-3.364;2024-01-15T12:37:57;101022.50;;;15.37;38.04
79527;BME280;68974;47.754;-3.364;2024-01-15T12:40:23;101021.75;;;15.64;36.92
79527;BME280;68974;47.754;-3.364;2024-01-15T12:42:49;101027.50;;;15.53;36.73
79527;BME280;68974;47.754;-3.364;2024-01-15T12:45:15;101027.78;;;14.17;39.63
79527;BME280;68974;47.754;-3.364;2024-01-15T12:47:41;101036.81;;;13.38;41.28
79527;BME280;68974;47.754;-3.364;2024-01-15T12:50:11;101040.84;;;12.15;44.32
79527;BME280;68974;47.754;-3.364;2024-01-15T12:52:37;101039.56;;;10.52;48.82